createdAt,value
2022-09-23T00:00:19.991Z,7.03
2022-09-23T00:02:49.007Z,6.89
2022-09-23T00:05:15.590Z,7.02
2022-09-23T00:07:42.028Z,7.17
2022-09-23T00:10:08.686Z,7.31
2022-09-23T00:12:35.174Z,7.21
2022-09-23T00:15:02.058Z,7.13
2022-09-23T00:17:28.485Z,7.15
2022-09-23T00:19:55.391Z,7.12
2022-09-23T00:22:21.813Z,7.09
2022-09-23T00:24:48.286Z,6.91
2022-09-23T00:27:14.721Z,6.84
2022-09-23T00:29:41.215Z,7.09
2022-09-23T00:32:07.702Z,6.93
2022-09-23T00:34:34.270Z,6.90
2022-09-23T00:37:00.753Z,6.86
2022-09-23T00:39:27.186Z,6.70
2022-09-23T00:41:54.107Z,6.55
2022-09-23T00:44:39.418Z,6.57
2022-09-23T00:47:10.694Z,6.78
2022-09-23T00:49:37.129Z,6.88
2022-09-23T00:52:08.717Z,6.86
2022-09-23T00:54:35.379Z,6.65
2022-09-23T00:57:03.650Z,6.75
2022-09-23T00:59:30.098Z,6.95
2022-09-23T01:01:57.627Z,7.10
2022-09-23T01:04:26.080Z,6.87
2022-09-23T01:06:52.725Z,6.71
2022-09-23T01:09:19.637Z,6.71
2022-09-23T01:11:50.246Z,6.84
2022-09-23T01:14:35.050Z,6.80
2022-09-23T01:17:13.681Z,6.96
2022-09-23T01:19:49.631Z,6.76
2022-09-23T01:22:34.541Z,6.72
2022-09-23T01:25:19.790Z,6.88
2022-09-23T01:27:52.199Z,6.70
2022-09-23T01:30:34.064Z,6.66
2022-09-23T01:33:18.627Z,6.75
2022-09-23T01:35:53.030Z,6.64
2022-09-23T01:38:19.421Z,6.37
2022-09-23T01:40:48.653Z,6.42
2022-09-23T01:43:20.615Z,6.55
2022-09-23T01:45:48.049Z,6.53
2022-09-23T01:48:50.338Z,6.50
2022-09-23T01:51:20.916Z,6.57
2022-09-23T01:53:57.988Z,6.29
2022-09-23T01:56:27.347Z,6.34
2022-09-23T01:59:01.558Z,6.22
2022-09-23T02:01:39.114Z,6.17
2022-09-23T02:04:09.263Z,6.15
2022-09-23T02:06:46.459Z,6.20
2022-09-23T02:09:15.697Z,6.09
2022-09-23T02:11:45.345Z,6.14
2022-09-23T02:14:30.678Z,6.23
2022-09-23T02:16:59.336Z,6.29
2022-09-23T02:19:27.070Z,6.19
2022-09-23T02:22:02.300Z,6.16
2022-09-23T02:24:34.580Z,6.19
2022-09-23T02:27:07.082Z,6.02
2022-09-23T02:29:33.496Z,6.19
2022-09-23T02:32:08.356Z,6.29
2022-09-23T02:34:40.898Z,6.27
2022-09-23T02:37:26.257Z,6.37
2022-09-23T02:40:01.786Z,6.30
2022-09-23T02:42:37.925Z,6.19
2022-09-23T02:45:04.562Z,5.94
2022-09-23T02:47:34.175Z,5.97
2022-09-23T02:50:01.394Z,5.95
2022-09-23T02:52:27.885Z,5.95
2022-09-23T02:54:54.659Z,6.10
2022-09-23T02:57:21.486Z,6.03
2022-09-23T02:59:48.132Z,6.02
2022-09-23T03:02:14.606Z,5.93
2022-09-23T03:04:53.527Z,5.97
2022-09-23T03:07:33.574Z,5.83
2022-09-23T03:09:59.971Z,5.88
2022-09-23T03:12:46.164Z,5.78
2022-09-23T03:15:23.107Z,5.76
2022-09-23T03:18:08.334Z,5.77
2022-09-23T03:20:35.118Z,5.84
2022-09-23T03:23:05.019Z,5.85
2022-09-23T03:25:33.209Z,5.79
2022-09-23T03:28:01.101Z,5.63
2022-09-23T03:30:28.817Z,5.71
2022-09-23T03:32:57.081Z,5.77
2022-09-23T03:35:24.548Z,5.83
2022-09-23T03:37:55.666Z,5.65
2022-09-23T03:40:30.025Z,5.64
2022-09-23T03:42:57.491Z,5.61
2022-09-23T03:45:27.497Z,5.69
2022-09-23T03:47:54.046Z,5.58
2022-09-23T03:50:21.291Z,5.71
2022-09-23T03:52:48.934Z,5.64
2022-09-23T03:55:17.005Z,5.72
2022-09-23T03:57:43.542Z,5.58
2022-09-23T04:00:10.442Z,5.67
2022-09-23T04:02:40.593Z,5.45
2022-09-23T04:05:07.865Z,5.36
2022-09-23T04:07:34.413Z,5.20
2022-09-23T04:10:00.819Z,5.37
2022-09-23T04:12:27.269Z,5.26
2022-09-23T04:14:53.692Z,5.49
2022-09-23T04:17:21.962Z,5.41
2022-09-23T04:19:48.384Z,5.44
2022-09-23T04:22:14.863Z,5.51
2022-09-23T04:24:41.350Z,5.41
2022-09-23T04:27:07.762Z,5.31
2022-09-23T04:29:34.250Z,5.47
2022-09-23T04:32:00.770Z,5.36
2022-09-23T04:34:27.390Z,5.46
2022-09-23T04:36:53.854Z,5.47
2022-09-23T04:39:20.310Z,5.41
2022-09-23T04:41:47.238Z,5.39
2022-09-23T04:44:14.229Z,5.56
2022-09-23T04:46:41.230Z,5.55
2022-09-23T04:49:07.970Z,5.70
2022-09-23T04:51:34.957Z,5.68
2022-09-23T04:54:01.481Z,5.64
2022-09-23T04:56:29.359Z,5.49
2022-09-23T04:58:58.194Z,5.55
2022-09-23T05:01:26.982Z,5.60
2022-09-23T05:03:55.120Z,5.48
2022-09-23T05:06:21.776Z,5.58
2022-09-23T05:08:49.948Z,5.58
2022-09-23T05:11:16.466Z,5.69
2022-09-23T05:13:42.991Z,5.57
2022-09-23T05:16:12.092Z,5.50
2022-09-23T05:18:41.108Z,5.54
2022-09-23T05:21:07.597Z,5.55
2022-09-23T05:23:34.027Z,5.89
2022-09-23T05:26:01.669Z,6.47
2022-09-23T05:28:32.725Z,6.83
2022-09-23T05:31:06.557Z,6.81
2022-09-23T05:33:33.454Z,7.08
2022-09-23T05:36:00.843Z,7.15
2022-09-23T05:38:28.047Z,7.33
2022-09-23T05:40:58.528Z,7.35
2022-09-23T05:43:25.734Z,7.31
2022-09-23T05:45:52.569Z,7.21
2022-09-23T05:48:19.038Z,7.39
2022-09-23T05:50:54.363Z,7.61
2022-09-23T05:53:21.116Z,7.93
2022-09-23T05:55:47.575Z,8.13
2022-09-23T05:58:14.358Z,8.45
2022-09-23T06:00:41.399Z,8.68
2022-09-23T06:03:14.683Z,9.21
2022-09-23T06:05:41.320Z,9.39
2022-09-23T06:08:08.108Z,9.88
2022-09-23T06:10:41.990Z,9.99
2022-09-23T06:13:08.878Z,10.11
2022-09-23T06:15:36.003Z,10.63
2022-09-23T06:18:02.922Z,10.43
2022-09-23T06:20:29.596Z,10.58
2022-09-23T06:22:58.066Z,10.93
2022-09-23T06:25:24.522Z,10.80
2022-09-23T06:27:54.493Z,11.04
2022-09-23T06:30:21.630Z,10.99
2022-09-23T06:32:49.826Z,10.79
2022-09-23T06:35:24.994Z,11.35
2022-09-23T06:37:53.680Z,11.80
2022-09-23T06:40:20.639Z,12.19
2022-09-23T06:42:51.490Z,11.83
2022-09-23T06:45:18.750Z,12.05
2022-09-23T06:47:45.152Z,12.14
2022-09-23T06:50:14.684Z,12.58
2022-09-23T06:52:42.084Z,12.68
2022-09-23T06:55:10.108Z,12.56
2022-09-23T06:57:36.548Z,13.15
2022-09-23T07:00:03.320Z,13.14
2022-09-23T07:02:29.904Z,13.33
2022-09-23T07:04:57.395Z,13.26
2022-09-23T07:07:23.873Z,13.08
2022-09-23T07:09:50.293Z,13.24
2022-09-23T07:12:16.696Z,13.52
2022-09-23T07:14:43.134Z,13.13
2022-09-23T07:17:09.546Z,13.52
2022-09-23T07:19:36.476Z,13.75
2022-09-23T07:22:02.979Z,13.33
2022-09-23T07:24:29.398Z,13.40
2022-09-23T07:26:55.842Z,14.15
2022-09-23T07:29:22.277Z,14.48
2022-09-23T07:31:48.781Z,14.34
2022-09-23T07:34:15.265Z,14.55
2022-09-23T07:36:41.951Z,14.58
2022-09-23T07:39:09.844Z,14.60
2022-09-23T07:41:37.078Z,14.47
2022-09-23T07:44:03.722Z,15.03
2022-09-23T07:46:31.467Z,14.67
2022-09-23T07:48:58.040Z,15.53
2022-09-23T07:51:35.968Z,15.64
2022-09-23T07:54:03.096Z,15.92
2022-09-23T07:56:30.084Z,16.34
2022-09-23T07:59:05.733Z,15.96
2022-09-23T08:01:33.735Z,16.17
2022-09-23T08:04:02.118Z,16.74
2022-09-23T08:06:28.590Z,15.98
2022-09-23T08:08:57.206Z,16.29
2022-09-23T08:11:27.610Z,16.06
2022-09-23T08:13:57.218Z,16.11
2022-09-23T08:16:23.787Z,16.41
2022-09-23T08:18:50.567Z,17.08
2022-09-23T08:21:21.058Z,16.97
2022-09-23T08:23:47.648Z,16.98
2022-09-23T08:26:21.014Z,18.77
2022-09-23T08:28:49.029Z,18.11
2022-09-23T08:31:15.729Z,17.53
2022-09-23T08:33:42.243Z,16.69
2022-09-23T08:36:08.666Z,17.68
2022-09-23T08:38:35.157Z,17.62
2022-09-23T08:41:21.903Z,16.88
2022-09-23T08:43:54.793Z,17.78
2022-09-23T08:46:23.767Z,19.03
2022-09-23T08:48:50.443Z,19.74
2022-09-23T08:51:24.050Z,18.92
2022-09-23T08:53:50.553Z,18.09
2022-09-23T08:56:18.469Z,18.42
2022-09-23T08:59:00.113Z,17.98
2022-09-23T09:01:35.823Z,18.82
2022-09-23T09:04:22.573Z,18.61
2022-09-23T09:06:53.485Z,19.07
2022-09-23T09:09:30.417Z,18.77
2022-09-23T09:12:03.781Z,19.27
2022-09-23T09:14:33.031Z,19.12
2022-09-23T09:17:25.908Z,18.41
2022-09-23T09:19:56.753Z,18.11
2022-09-23T09:22:42.574Z,18.86
2022-09-23T09:25:19.046Z,19.46
2022-09-23T09:27:45.728Z,19.42
2022-09-23T09:30:14.489Z,18.88
2022-09-23T09:32:47.355Z,18.83
2022-09-23T09:35:36.766Z,19.17
2022-09-23T09:38:03.874Z,18.99
2022-09-23T09:40:30.417Z,19.39
2022-09-23T09:42:56.898Z,19.19
2022-09-23T09:45:28.395Z,20.11
2022-09-23T09:48:00.427Z,20.50
2022-09-23T09:50:44.536Z,20.01
2022-09-23T09:53:34.725Z,20.87
2022-09-23T09:56:08.845Z,20.71
2022-09-23T09:58:42.072Z,20.58
2022-09-23T10:01:09.093Z,20.74
2022-09-23T10:03:43.173Z,20.77
2022-09-23T10:06:17.737Z,20.64
2022-09-23T10:09:04.538Z,21.15
2022-09-23T10:11:31.952Z,20.70
2022-09-23T10:14:05.282Z,21.44
2022-09-23T10:16:34.310Z,21.89
2022-09-23T10:19:02.076Z,21.88
2022-09-23T10:21:36.262Z,21.49
2022-09-23T10:24:05.566Z,22.16
2022-09-23T10:26:33.584Z,21.46
2022-09-23T10:29:04.698Z,21.19
2022-09-23T10:31:34.944Z,21.71
2022-09-23T10:34:23.102Z,20.86
2022-09-23T10:37:02.530Z,22.22
2022-09-23T10:39:47.370Z,21.60
2022-09-23T10:42:40.760Z,21.87
2022-09-23T10:45:38.610Z,21.86
2022-09-23T10:48:19.674Z,22.27
2022-09-23T10:50:49.919Z,22.04
2022-09-23T10:53:35.714Z,21.85
2022-09-23T10:56:08.320Z,22.48
2022-09-23T10:58:37.905Z,23.22
2022-09-23T11:01:23.215Z,21.86
2022-09-23T11:03:52.555Z,22.32
2022-09-23T11:06:28.891Z,22.18
2022-09-23T11:09:01.223Z,22.27
2022-09-23T11:11:32.557Z,22.07
2022-09-23T11:14:13.160Z,22.58
2022-09-23T11:16:40.330Z,22.17
2022-09-23T11:19:12.971Z,22.62
2022-09-23T11:21:58.226Z,22.79
2022-09-23T11:24:50.976Z,21.87
2022-09-23T11:27:26.565Z,22.35
2022-09-23T11:30:13.020Z,22.37
2022-09-23T11:32:48.727Z,23.36
2022-09-23T11:35:19.360Z,23.33
2022-09-23T11:37:55.782Z,23.43
2022-09-23T11:40:32.151Z,22.76
2022-09-23T11:43:01.571Z,22.85
2022-09-23T11:45:31.443Z,21.03
2022-09-23T11:47:59.927Z,23.34
2022-09-23T11:50:29.577Z,23.13
2022-09-23T11:53:18.705Z,22.84
2022-09-23T11:55:57.833Z,23.02
2022-09-23T11:58:34.791Z,23.59
2022-09-23T12:01:03.852Z,21.98
2022-09-23T12:03:42.482Z,22.05
2022-09-23T12:06:24.685Z,22.23
2022-09-23T12:08:54.221Z,22.52
2022-09-23T12:11:29.730Z,21.04
2022-09-23T12:14:03.059Z,23.18
2022-09-23T12:16:29.575Z,23.11
2022-09-23T12:18:59.168Z,21.23
2022-09-23T12:21:50.346Z,22.87
2022-09-23T12:24:36.162Z,22.99
2022-09-23T12:27:06.841Z,23.19
2022-09-23T12:29:35.490Z,23.55
2022-09-23T12:32:09.926Z,23.28
2022-09-23T12:34:40.445Z,23.04
2022-09-23T12:37:07.072Z,22.82
2022-09-23T12:39:35.475Z,23.18
2022-09-23T12:42:03.516Z,23.82
2022-09-23T12:44:41.617Z,22.78
2022-09-23T12:47:14.192Z,22.19
2022-09-23T12:49:41.622Z,21.57
2022-09-23T12:52:17.258Z,21.92
2022-09-23T12:54:44.694Z,22.73
2022-09-23T12:57:12.171Z,22.98
2022-09-23T12:59:51.171Z,23.78
2022-09-23T13:02:37.270Z,23.98
2022-09-23T13:05:28.629Z,22.49
2022-09-23T13:07:58.922Z,23.85
2022-09-23T13:10:29.298Z,23.74
2022-09-23T13:12:57.835Z,22.07
2022-09-23T13:15:24.253Z,21.45
2022-09-23T13:17:50.723Z,22.20
2022-09-23T13:20:20.590Z,23.01
2022-09-23T13:22:50.026Z,22.42
2022-09-23T13:25:19.250Z,23.49
2022-09-23T13:27:47.639Z,23.86
2022-09-23T13:30:14.049Z,22.26
2022-09-23T13:32:48.489Z,23.59
2022-09-23T13:35:35.692Z,23.94
2022-09-23T13:38:32.630Z,24.05
2022-09-23T13:41:04.647Z,23.94
2022-09-23T13:43:40.840Z,22.58
2022-09-23T13:46:34.046Z,21.99
2022-09-23T13:49:00.680Z,23.09
2022-09-23T13:51:30.071Z,23.36
2022-09-23T13:53:58.089Z,23.71
2022-09-23T13:56:26.070Z,23.60
2022-09-23T13:58:52.912Z,23.32
2022-09-23T14:01:32.948Z,23.33
2022-09-23T14:03:59.812Z,22.78
2022-09-23T14:06:29.750Z,22.72
2022-09-23T14:08:57.301Z,22.73
2022-09-23T14:11:29.465Z,23.16
2022-09-23T14:13:56.577Z,22.41
2022-09-23T14:16:26.311Z,22.21
2022-09-23T14:18:56.531Z,23.02
2022-09-23T14:21:34.833Z,22.97
2022-09-23T14:24:18.547Z,22.98
2022-09-23T14:27:08.135Z,23.29
2022-09-23T14:29:38.729Z,22.93
2022-09-23T14:32:06.781Z,22.77
2022-09-23T14:34:44.598Z,22.89
2022-09-23T14:37:35.789Z,23.25
2022-09-23T14:40:02.783Z,23.45
2022-09-23T14:42:31.625Z,22.27
2022-09-23T14:44:58.132Z,22.64
2022-09-23T14:47:25.235Z,21.75
2022-09-23T14:50:10.306Z,21.81
2022-09-23T14:52:36.738Z,22.10
2022-09-23T14:55:03.529Z,22.48
2022-09-23T14:57:31.322Z,22.05
2022-09-23T15:00:08.739Z,22.02
2022-09-23T15:02:35.285Z,21.64
2022-09-23T15:05:15.685Z,21.03
2022-09-23T15:07:44.105Z,21.49
2022-09-23T15:10:17.097Z,21.62
2022-09-23T15:12:45.594Z,20.99
2022-09-23T15:15:13.375Z,21.31
2022-09-23T15:17:39.975Z,21.11
2022-09-23T15:20:19.015Z,20.92
2022-09-23T15:22:46.449Z,20.39
2022-09-23T15:25:18.440Z,21.08
2022-09-23T15:28:23.688Z,20.73
2022-09-23T15:30:50.360Z,20.58
2022-09-23T15:33:16.815Z,20.28
2022-09-23T15:35:46.396Z,20.06
2022-09-23T15:38:12.953Z,20.08
2022-09-23T15:40:40.303Z,19.65
2022-09-23T15:43:21.139Z,19.60
2022-09-23T15:45:50.324Z,19.34
2022-09-23T15:48:17.850Z,19.18
2022-09-23T15:50:47.422Z,19.46
2022-09-23T15:53:16.071Z,18.61
2022-09-23T15:55:42.560Z,18.27
2022-09-23T15:58:09.097Z,18.28
2022-09-23T16:00:36.478Z,17.45
2022-09-23T16:03:04.241Z,17.47
2022-09-23T16:05:36.161Z,17.45
2022-09-23T16:08:08.497Z,16.98
2022-09-23T16:10:36.024Z,16.98
2022-09-23T16:13:04.878Z,16.79
2022-09-23T16:15:31.909Z,16.20
2022-09-23T16:17:59.133Z,16.21
2022-09-23T16:20:28.495Z,16.24
2022-09-23T16:23:02.563Z,16.10
2022-09-23T16:25:31.853Z,16.02
2022-09-23T16:27:58.413Z,16.01
2022-09-23T16:30:29.142Z,16.01
2022-09-23T16:32:56.122Z,15.78
2022-09-23T16:35:24.127Z,15.78
2022-09-23T16:37:51.271Z,15.62
2022-09-23T16:40:22.188Z,15.71
2022-09-23T16:42:49.386Z,15.61
2022-09-23T16:45:17.773Z,15.61
2022-09-23T16:47:44.800Z,15.35
2022-09-23T16:50:11.990Z,14.93
2022-09-23T16:52:38.522Z,14.78
2022-09-23T16:55:05.243Z,14.47
2022-09-23T16:57:31.688Z,14.68
2022-09-23T17:00:16.825Z,14.30
2022-09-23T17:03:01.775Z,14.32
2022-09-23T17:05:28.248Z,14.22
2022-09-23T17:07:54.805Z,14.20
2022-09-23T17:10:21.528Z,14.29
2022-09-23T17:12:47.945Z,14.22
2022-09-23T17:15:14.396Z,14.17
2022-09-23T17:17:40.951Z,14.27
2022-09-23T17:20:07.594Z,14.23
2022-09-23T17:22:34.310Z,14.20
2022-09-23T17:25:02.183Z,14.00
2022-09-23T17:27:28.761Z,13.72
2022-09-23T17:29:55.642Z,13.81
2022-09-23T17:32:22.086Z,13.61
2022-09-23T17:34:48.560Z,13.49
2022-09-23T17:37:15.217Z,13.43
2022-09-23T17:39:42.500Z,13.68
2022-09-23T17:42:09.435Z,13.46
2022-09-23T17:44:36.238Z,13.50
2022-09-23T17:47:03.661Z,13.48
2022-09-23T17:49:35.213Z,13.34
2022-09-23T17:52:05.314Z,13.36
2022-09-23T17:54:32.345Z,13.39
2022-09-23T17:56:59.798Z,13.36
2022-09-23T17:59:26.667Z,13.33
2022-09-23T18:01:53.381Z,13.27
2022-09-23T18:04:20.189Z,13.00
2022-09-23T18:06:47.324Z,13.03
2022-09-23T18:09:14.118Z,13.03
2022-09-23T18:11:42.120Z,12.86
2022-09-23T18:14:13.089Z,12.80
2022-09-23T18:16:40.323Z,13.02
2022-09-23T18:19:07.853Z,12.92
2022-09-23T18:21:35.719Z,12.79
2022-09-23T18:24:28.119Z,12.80
2022-09-23T18:26:52.785Z,12.65
2022-09-23T18:29:19.665Z,12.48
2022-09-23T18:31:47.403Z,12.55
2022-09-23T18:34:16.233Z,12.62
2022-09-23T18:36:43.250Z,12.29
2022-09-23T18:39:09.810Z,12.51
2022-09-23T18:41:36.441Z,12.29
2022-09-23T18:44:03.461Z,12.13
2022-09-23T18:46:30.425Z,12.08
2022-09-23T18:49:15.960Z,12.23
2022-09-23T18:51:48.564Z,12.09
2022-09-23T18:54:16.014Z,12.22
2022-09-23T18:56:43.177Z,12.25
2022-09-23T18:59:12.514Z,12.36
2022-09-23T19:01:39.105Z,12.37
2022-09-23T19:04:06.672Z,12.31
2022-09-23T19:06:33.564Z,12.16
2022-09-23T19:09:00.233Z,12.15
2022-09-23T19:11:26.863Z,12.24
2022-09-23T19:13:57.945Z,12.14
2022-09-23T19:16:24.961Z,12.09
2022-09-23T19:18:52.118Z,12.03
2022-09-23T19:21:20.461Z,11.86
2022-09-23T19:23:48.257Z,11.83
2022-09-23T19:26:16.352Z,11.90
2022-09-23T19:28:47.520Z,11.99
2022-09-23T19:31:16.847Z,11.88
2022-09-23T19:33:48.519Z,11.84
2022-09-23T19:36:16.823Z,11.62
2022-09-23T19:38:44.326Z,11.42
2022-09-23T19:41:11.213Z,11.55
2022-09-23T19:43:37.815Z,11.72
2022-09-23T19:46:04.616Z,11.63
2022-09-23T19:48:31.093Z,11.55
2022-09-23T19:50:57.558Z,11.52
2022-09-23T19:53:28.024Z,11.42
2022-09-23T19:55:56.081Z,11.32
2022-09-23T19:58:23.163Z,11.34
2022-09-23T20:00:49.662Z,11.45
2022-09-23T20:03:17.594Z,11.20
2022-09-23T20:05:44.162Z,11.37
2022-09-23T20:08:10.613Z,11.38
2022-09-23T20:10:40.239Z,11.33
2022-09-23T20:13:07.475Z,11.05
2022-09-23T20:15:33.901Z,11.12
2022-09-23T20:18:00.339Z,11.07
2022-09-23T20:20:26.782Z,10.97
2022-09-23T20:22:55.072Z,10.85
2022-09-23T20:25:21.647Z,11.11
2022-09-23T20:27:49.442Z,11.02
2022-09-23T20:30:16.099Z,10.87
2022-09-23T20:32:44.741Z,10.89
2022-09-23T20:35:11.461Z,10.80
2022-09-23T20:37:37.957Z,10.78
2022-09-23T20:40:04.787Z,10.54
2022-09-23T20:42:31.905Z,10.73
2022-09-23T20:44:58.482Z,10.90
2022-09-23T20:47:24.959Z,11.00
2022-09-23T20:49:53.361Z,11.02
2022-09-23T20:52:21.461Z,11.00
2022-09-23T20:54:50.437Z,11.00
2022-09-23T20:57:18.085Z,11.08
2022-09-23T20:59:44.585Z,11.14
2022-09-23T21:02:11.135Z,11.09
2022-09-23T21:04:37.798Z,11.10
2022-09-23T21:07:04.359Z,11.04
2022-09-23T21:09:33.857Z,10.85
2022-09-23T21:12:00.423Z,10.78
2022-09-23T21:14:26.927Z,10.93
2022-09-23T21:16:54.876Z,10.89
2022-09-23T21:19:21.354Z,10.78
2022-09-23T21:21:47.758Z,10.76
2022-09-23T21:27:03.353Z,10.83
2022-09-23T21:29:29.811Z,10.56
2022-09-23T21:31:56.225Z,10.64
2022-09-23T21:34:23.404Z,10.44
2022-09-23T21:36:49.810Z,10.56
2022-09-23T21:39:16.258Z,10.60
2022-09-23T21:41:42.821Z,10.63
2022-09-23T21:44:09.411Z,10.63
2022-09-23T21:46:36.439Z,10.51
2022-09-23T21:49:03.665Z,10.33
2022-09-23T21:51:36.374Z,10.24
2022-09-23T21:54:02.803Z,10.10
2022-09-23T21:56:30.203Z,10.08
2022-09-23T21:58:57.798Z,10.14
2022-09-23T22:01:25.992Z,10.13
2022-09-23T22:03:54.346Z,10.06
2022-09-23T22:06:22.335Z,9.97
2022-09-23T22:08:50.681Z,9.96
2022-09-23T22:11:37.305Z,9.92
2022-09-23T22:14:04.629Z,10.15
2022-09-23T22:16:31.277Z,10.08
2022-09-23T22:18:59.154Z,9.93
2022-09-23T22:21:26.662Z,9.89
2022-09-23T22:23:53.758Z,10.06
2022-09-23T22:26:20.244Z,9.91
2022-09-23T22:29:05.451Z,9.77
2022-09-23T22:31:50.368Z,9.65
2022-09-23T22:34:47.424Z,9.70
2022-09-23T22:37:03.638Z,9.66
2022-09-23T22:39:30.475Z,9.64
2022-09-23T22:41:58.791Z,9.51
2022-09-23T22:44:25.658Z,9.55
2022-09-23T22:46:52.376Z,9.59
2022-09-23T22:49:19.733Z,9.43
2022-09-23T22:51:46.580Z,9.45
2022-09-23T22:54:12.998Z,9.56
2022-09-23T22:56:39.434Z,9.47
2022-09-23T22:59:06.853Z,9.45
2022-09-23T23:01:33.807Z,9.47
2022-09-23T23:04:03.545Z,9.55
2022-09-23T23:06:35.897Z,9.52
2022-09-23T23:09:05.411Z,9.61
2022-09-23T23:11:32.000Z,9.61
2022-09-23T23:14:02.276Z,9.50
2022-09-23T23:16:29.512Z,9.60
2022-09-23T23:18:56.454Z,9.59
2022-09-23T23:21:22.880Z,9.58
2022-09-23T23:23:50.702Z,9.49
2022-09-23T23:26:20.016Z,9.45
2022-09-23T23:28:46.674Z,9.32
2022-09-23T23:31:15.794Z,9.32
2022-09-23T23:33:42.443Z,9.24
2022-09-23T23:36:09.631Z,9.31
2022-09-23T23:38:37.919Z,9.17
2022-09-23T23:41:05.459Z,9.22
2022-09-23T23:43:32.055Z,9.20
2022-09-23T23:46:00.261Z,9.00
2022-09-23T23:48:28.049Z,8.92
2022-09-23T23:50:58.666Z,8.90
2022-09-23T23:53:26.358Z,9.15
2022-09-23T23:55:52.792Z,8.94
2022-09-23T23:58:19.316Z,8.92
